sensor_id;sensor_type;location;lat;lon;timestamp;P1;durP1;ratioP1;P2;durP2;ratioP2
45326;SDS011;31062;49.678;24.560;2022-07-30T00:00:11;1.85;;;1.70;;
45326;SDS011;31062;49.678;24.560;2022-07-30T00:03:08;2.55;;;1.75;;
45326;SDS011;31062;49.678;24.560;2022-07-30T00:05:54;2.47;;;2.03;;
45326;SDS011;31062;49.678;24.560;2022-07-30T00:08:39;6.38;;;1.67;;
45326;SDS011;31062;49.678;24.560;2022-07-30T00:11:25;3.00;;;2.20;;
45326;SDS011;31062;49.678;24.560;2022-07-30T00:14:12;4.78;;;2.03;;
45326;SDS011;31062;49.678;24.560;2022-07-30T00:16:57;2.90;;;1.73;;
45326;SDS011;31062;49.678;24.560;2022-07-30T00:19:43;2.80;;;1.80;;
45326;SDS011;31062;49.678;24.560;2022-07-30T00:22:29;4.80;;;1.60;;
45326;SDS011;31062;49.678;24.560;2022-07-30T00:25:16;3.60;;;1.70;;
45326;SDS011;31062;49.678;24.560;2022-07-30T00:28:02;1.77;;;1.60;;
45326;SDS011;31062;49.678;24.560;2022-07-30T00:30:48;1.60;;;1.50;;
45326;SDS011;31062;49.678;24.560;2022-07-30T00:33:40;2.78;;;1.50;;
45326;SDS011;31062;49.678;24.560;2022-07-30T00:36:25;1.60;;;1.48;;
45326;SDS011;31062;49.678;24.560;2022-07-30T00:39:11;7.68;;;2.00;;
45326;SDS011;31062;49.678;24.560;2022-07-30T00:41:58;3.53;;;1.58;;
45326;SDS011;31062;49.678;24.560;2022-07-30T00:44:45;3.17;;;2.10;;
45326;SDS011;31062;49.678;24.560;2022-07-30T00:47:30;3.17;;;1.73;;
45326;SDS011;31062;49.678;24.560;2022-07-30T00:50:16;4.97;;;1.80;;
45326;SDS011;31062;49.678;24.560;2022-07-30T00:53:03;1.70;;;1.50;;
45326;SDS011;31062;49.678;24.560;2022-07-30T00:55:49;3.17;;;1.50;;
45326;SDS011;31062;49.678;24.560;2022-07-30T00:58:34;3.45;;;1.80;;
45326;SDS011;31062;49.678;24.560;2022-07-30T01:01:20;2.80;;;1.30;;
45326;SDS011;31062;49.678;24.560;2022-07-30T01:04:05;3.47;;;1.52;;
45326;SDS011;31062;49.678;24.560;2022-07-30T01:06:56;3.45;;;1.77;;
45326;SDS011;31062;49.678;24.560;2022-07-30T01:09:41;1.98;;;1.52;;
45326;SDS011;31062;49.678;24.560;2022-07-30T01:12:32;7.45;;;1.95;;
45326;SDS011;31062;49.678;24.560;2022-07-30T01:15:18;2.83;;;1.85;;
45326;SDS011;31062;49.678;24.560;2022-07-30T01:18:05;6.03;;;1.88;;
45326;SDS011;31062;49.678;24.560;2022-07-30T01:21:03;5.32;;;1.80;;
45326;SDS011;31062;49.678;24.560;2022-07-30T01:23:52;2.95;;;1.75;;
45326;SDS011;31062;49.678;24.560;2022-07-30T01:26:42;1.30;;;1.20;;
45326;SDS011;31062;49.678;24.560;2022-07-30T01:29:28;5.50;;;2.05;;
45326;SDS011;31062;49.678;24.560;2022-07-30T01:32:16;2.28;;;1.60;;
45326;SDS011;31062;49.678;24.560;2022-07-30T01:35:06;7.50;;;1.20;;
45326;SDS011;31062;49.678;24.560;2022-07-30T01:37:54;1.85;;;1.27;;
45326;SDS011;31062;49.678;24.560;2022-07-30T01:40:42;1.95;;;1.80;;
45326;SDS011;31062;49.678;24.560;2022-07-30T01:43:28;3.28;;;1.60;;
45326;SDS011;31062;49.678;24.560;2022-07-30T01:46:16;3.17;;;1.77;;
45326;SDS011;31062;49.678;24.560;2022-07-30T01:49:06;13.32;;;1.92;;
45326;SDS011;31062;49.678;24.560;2022-07-30T01:51:53;2.03;;;1.70;;
45326;SDS011;31062;49.678;24.560;2022-07-30T01:54:39;2.00;;;1.90;;
45326;SDS011;31062;49.678;24.560;2022-07-30T01:57:28;2.00;;;1.90;;
45326;SDS011;31062;49.678;24.560;2022-07-30T02:00:16;1.95;;;1.85;;
45326;SDS011;31062;49.678;24.560;2022-07-30T02:03:04;1.88;;;1.67;;
45326;SDS011;31062;49.678;24.560;2022-07-30T02:05:54;2.30;;;2.10;;
45326;SDS011;31062;49.678;24.560;2022-07-30T02:08:44;3.08;;;2.13;;
45326;SDS011;31062;49.678;24.560;2022-07-30T02:11:38;3.25;;;2.33;;
45326;SDS011;31062;49.678;24.560;2022-07-30T02:14:48;7.20;;;2.83;;
45326;SDS011;31062;49.678;24.560;2022-07-30T02:20:44;9.57;;;2.40;;
45326;SDS011;31062;49.678;24.560;2022-07-30T02:23:34;3.50;;;2.08;;
45326;SDS011;31062;49.678;24.560;2022-07-30T02:26:23;2.55;;;1.80;;
45326;SDS011;31062;49.678;24.560;2022-07-30T02:29:11;6.72;;;2.47;;
45326;SDS011;31062;49.678;24.560;2022-07-30T02:32:01;5.57;;;2.25;;
45326;SDS011;31062;49.678;24.560;2022-07-30T02:34:50;6.18;;;2.20;;
45326;SDS011;31062;49.678;24.560;2022-07-30T02:37:40;7.97;;;2.05;;
45326;SDS011;31062;49.678;24.560;2022-07-30T02:40:29;2.80;;;2.60;;
45326;SDS011;31062;49.678;24.560;2022-07-30T02:43:16;5.82;;;2.50;;
45326;SDS011;31062;49.678;24.560;2022-07-30T02:46:02;4.55;;;2.55;;
45326;SDS011;31062;49.678;24.560;2022-07-30T02:49:09;3.80;;;3.00;;
45326;SDS011;31062;49.678;24.560;2022-07-30T02:51:59;5.85;;;2.35;;
45326;SDS011;31062;49.678;24.560;2022-07-30T02:54:47;2.83;;;2.30;;
45326;SDS011;31062;49.678;24.560;2022-07-30T02:57:36;11.55;;;3.00;;
45326;SDS011;31062;49.678;24.560;2022-07-30T03:00:29;5.30;;;2.90;;
45326;SDS011;31062;49.678;24.560;2022-07-30T03:03:16;14.60;;;3.10;;
45326;SDS011;31062;49.678;24.560;2022-07-30T03:06:02;5.95;;;2.42;;
45326;SDS011;31062;49.678;24.560;2022-07-30T03:08:50;5.72;;;3.10;;
45326;SDS011;31062;49.678;24.560;2022-07-30T03:11:38;3.15;;;2.83;;
45326;SDS011;31062;49.678;24.560;2022-07-30T03:14:25;3.05;;;2.47;;
45326;SDS011;31062;49.678;24.560;2022-07-30T03:17:11;4.57;;;2.53;;
45326;SDS011;31062;49.678;24.560;2022-07-30T03:20:00;5.28;;;3.15;;
45326;SDS011;31062;49.678;24.560;2022-07-30T03:22:49;5.70;;;2.92;;
45326;SDS011;31062;49.678;24.560;2022-07-30T03:25:38;6.13;;;2.53;;
45326;SDS011;31062;49.678;24.560;2022-07-30T03:28:27;4.00;;;2.58;;
45326;SDS011;31062;49.678;24.560;2022-07-30T03:31:15;5.72;;;2.22;;
45326;SDS011;31062;49.678;24.560;2022-07-30T03:34:04;6.45;;;2.60;;
45326;SDS011;31062;49.678;24.560;2022-07-30T03:36:52;2.78;;;1.88;;
45326;SDS011;31062;49.678;24.560;2022-07-30T03:39:39;4.13;;;2.25;;
45326;SDS011;31062;49.678;24.560;2022-07-30T03:42:25;4.32;;;2.10;;
45326;SDS011;31062;49.678;24.560;2022-07-30T03:45:11;5.35;;;2.30;;
45326;SDS011;31062;49.678;24.560;2022-07-30T03:47:58;5.10;;;2.75;;
45326;SDS011;31062;49.678;24.560;2022-07-30T03:50:44;5.28;;;3.10;;
45326;SDS011;31062;49.678;24.560;2022-07-30T03:53:31;10.50;;;2.97;;
45326;SDS011;31062;49.678;24.560;2022-07-30T03:56:36;8.90;;;2.83;;
45326;SDS011;31062;49.678;24.560;2022-07-30T03:59:49;4.57;;;3.13;;
45326;SDS011;31062;49.678;24.560;2022-07-30T04:02:41;6.57;;;3.10;;
45326;SDS011;31062;49.678;24.560;2022-07-30T04:05:31;5.72;;;3.17;;
45326;SDS011;31062;49.678;24.560;2022-07-30T04:08:29;10.82;;;3.95;;
45326;SDS011;31062;49.678;24.560;2022-07-30T04:11:16;5.35;;;3.72;;
45326;SDS011;31062;49.678;24.560;2022-07-30T04:14:26;7.13;;;3.42;;
45326;SDS011;31062;49.678;24.560;2022-07-30T04:17:23;5.63;;;3.20;;
45326;SDS011;31062;49.678;24.560;2022-07-30T04:20:19;5.05;;;3.33;;
45326;SDS011;31062;49.678;24.560;2022-07-30T04:23:08;6.75;;;3.25;;
45326;SDS011;31062;49.678;24.560;2022-07-30T04:25:57;6.07;;;3.28;;
45326;SDS011;31062;49.678;24.560;2022-07-30T04:28:45;5.43;;;3.25;;
45326;SDS011;31062;49.678;24.560;2022-07-30T04:31:31;6.75;;;3.33;;
45326;SDS011;31062;49.678;24.560;2022-07-30T04:34:48;5.38;;;3.00;;
45326;SDS011;31062;49.678;24.560;2022-07-30T04:37:50;5.18;;;3.08;;
45326;SDS011;31062;49.678;24.560;2022-07-30T04:40:36;14.57;;;3.35;;
45326;SDS011;31062;49.678;24.560;2022-07-30T04:43:22;5.85;;;3.15;;
45326;SDS011;31062;49.678;24.560;2022-07-30T04:46:08;11.10;;;3.67;;
45326;SDS011;31062;49.678;24.560;2022-07-30T04:48:55;7.03;;;3.75;;
45326;SDS011;31062;49.678;24.560;2022-07-30T04:51:43;6.72;;;3.67;;
45326;SDS011;31062;49.678;24.560;2022-07-30T04:54:50;7.25;;;2.80;;
45326;SDS011;31062;49.678;24.560;2022-07-30T04:57:40;7.72;;;3.67;;
45326;SDS011;31062;49.678;24.560;2022-07-30T05:00:27;9.85;;;3.63;;
45326;SDS011;31062;49.678;24.560;2022-07-30T05:03:17;8.30;;;3.38;;
45326;SDS011;31062;49.678;24.560;2022-07-30T05:06:09;9.35;;;3.92;;
45326;SDS011;31062;49.678;24.560;2022-07-30T05:08:57;7.03;;;3.20;;
45326;SDS011;31062;49.678;24.560;2022-07-30T05:11:51;3.00;;;2.72;;
45326;SDS011;31062;49.678;24.560;2022-07-30T05:14:38;3.83;;;3.20;;
45326;SDS011;31062;49.678;24.560;2022-07-30T05:17:25;3.65;;;2.85;;
45326;SDS011;31062;49.678;24.560;2022-07-30T05:20:11;7.80;;;3.20;;
45326;SDS011;31062;49.678;24.560;2022-07-30T05:23:17;7.85;;;2.92;;
45326;SDS011;31062;49.678;24.560;2022-07-30T05:26:17;3.65;;;3.15;;
45326;SDS011;31062;49.678;24.560;2022-07-30T05:29:05;4.95;;;3.38;;
45326;SDS011;31062;49.678;24.560;2022-07-30T05:32:03;4.82;;;3.00;;
45326;SDS011;31062;49.678;24.560;2022-07-30T05:34:52;8.15;;;3.30;;
45326;SDS011;31062;49.678;24.560;2022-07-30T05:37:39;4.32;;;2.92;;
45326;SDS011;31062;49.678;24.560;2022-07-30T05:40:25;8.95;;;3.20;;
45326;SDS011;31062;49.678;24.560;2022-07-30T05:43:21;10.63;;;3.45;;
45326;SDS011;31062;49.678;24.560;2022-07-30T05:46:08;7.20;;;3.30;;
45326;SDS011;31062;49.678;24.560;2022-07-30T05:48:55;4.18;;;3.00;;
45326;SDS011;31062;49.678;24.560;2022-07-30T05:51:42;6.75;;;2.95;;
45326;SDS011;31062;49.678;24.560;2022-07-30T05:54:29;5.13;;;3.03;;
45326;SDS011;31062;49.678;24.560;2022-07-30T05:57:35;3.25;;;2.85;;
45326;SDS011;31062;49.678;24.560;2022-07-30T06:00:22;4.63;;;3.00;;
45326;SDS011;31062;49.678;24.560;2022-07-30T06:03:11;5.03;;;3.10;;
45326;SDS011;31062;49.678;24.560;2022-07-30T06:06:17;7.10;;;3.50;;
45326;SDS011;31062;49.678;24.560;2022-07-30T06:09:08;3.20;;;2.90;;
45326;SDS011;31062;49.678;24.560;2022-07-30T06:11:54;5.38;;;3.17;;
45326;SDS011;31062;49.678;24.560;2022-07-30T06:14:42;3.63;;;3.00;;
45326;SDS011;31062;49.678;24.560;2022-07-30T06:17:33;6.72;;;3.20;;
45326;SDS011;31062;49.678;24.560;2022-07-30T06:20:32;5.00;;;3.28;;
45326;SDS011;31062;49.678;24.560;2022-07-30T06:23:29;5.82;;;3.42;;
45326;SDS011;31062;49.678;24.560;2022-07-30T06:26:39;13.85;;;3.63;;
45326;SDS011;31062;49.678;24.560;2022-07-30T06:29:25;5.50;;;3.65;;
45326;SDS011;31062;49.678;24.560;2022-07-30T06:32:12;7.10;;;2.75;;
45326;SDS011;31062;49.678;24.560;2022-07-30T06:34:58;6.90;;;3.25;;
45326;SDS011;31062;49.678;24.560;2022-07-30T06:37:49;5.57;;;3.03;;
45326;SDS011;31062;49.678;24.560;2022-07-30T06:40:57;4.53;;;3.47;;
45326;SDS011;31062;49.678;24.560;2022-07-30T06:44:04;3.40;;;2.72;;
45326;SDS011;31062;49.678;24.560;2022-07-30T06:47:20;5.28;;;3.08;;
45326;SDS011;31062;49.678;24.560;2022-07-30T06:50:10;4.40;;;2.85;;
45326;SDS011;31062;49.678;24.560;2022-07-30T06:52:58;4.35;;;3.30;;
45326;SDS011;31062;49.678;24.560;2022-07-30T06:55:54;5.53;;;2.85;;
45326;SDS011;31062;49.678;24.560;2022-07-30T06:58:52;2.88;;;2.65;;
45326;SDS011;31062;49.678;24.560;2022-07-30T07:01:57;2.78;;;2.58;;
45326;SDS011;31062;49.678;24.560;2022-07-30T07:04:44;8.15;;;4.30;;
45326;SDS011;31062;49.678;24.560;2022-07-30T07:07:30;6.22;;;3.15;;
45326;SDS011;31062;49.678;24.560;2022-07-30T07:10:28;4.53;;;3.20;;
45326;SDS011;31062;49.678;24.560;2022-07-30T07:13:27;5.53;;;3.25;;
45326;SDS011;31062;49.678;24.560;2022-07-30T07:16:14;5.57;;;3.20;;
45326;SDS011;31062;49.678;24.560;2022-07-30T07:19:05;2.72;;;2.53;;
45326;SDS011;31062;49.678;24.560;2022-07-30T07:21:51;4.45;;;3.13;;
45326;SDS011;31062;49.678;24.560;2022-07-30T07:24:38;4.10;;;3.15;;
45326;SDS011;31062;49.678;24.560;2022-07-30T07:27:27;6.47;;;3.35;;
45326;SDS011;31062;49.678;24.560;2022-07-30T07:30:16;5.30;;;3.17;;
45326;SDS011;31062;49.678;24.560;2022-07-30T07:33:04;5.38;;;3.20;;
45326;SDS011;31062;49.678;24.560;2022-07-30T07:35:51;5.28;;;3.05;;
45326;SDS011;31062;49.678;24.560;2022-07-30T07:38:44;4.70;;;3.35;;
45326;SDS011;31062;49.678;24.560;2022-07-30T07:41:31;3.38;;;3.08;;
45326;SDS011;31062;49.678;24.560;2022-07-30T07:44:39;5.18;;;2.85;;
45326;SDS011;31062;49.678;24.560;2022-07-30T07:47:25;5.28;;;2.85;;
45326;SDS011;31062;49.678;24.560;2022-07-30T07:50:26;3.03;;;2.72;;
45326;SDS011;31062;49.678;24.560;2022-07-30T07:53:11;9.18;;;3.53;;
45326;SDS011;31062;49.678;24.560;2022-07-30T07:55:57;3.95;;;2.88;;
45326;SDS011;31062;49.678;24.560;2022-07-30T07:58:45;10.30;;;3.60;;
45326;SDS011;31062;49.678;24.560;2022-07-30T08:01:34;4.63;;;2.78;;
45326;SDS011;31062;49.678;24.560;2022-07-30T08:04:42;2.85;;;2.65;;
45326;SDS011;31062;49.678;24.560;2022-07-30T08:07:28;5.85;;;2.83;;
45326;SDS011;31062;49.678;24.560;2022-07-30T08:10:37;4.85;;;2.80;;
45326;SDS011;31062;49.678;24.560;2022-07-30T08:13:29;5.55;;;2.67;;
45326;SDS011;31062;49.678;24.560;2022-07-30T08:16:55;5.22;;;2.55;;
45326;SDS011;31062;49.678;24.560;2022-07-30T08:20:02;5.40;;;2.53;;
45326;SDS011;31062;49.678;24.560;2022-07-30T08:22:50;7.43;;;2.53;;
45326;SDS011;31062;49.678;24.560;2022-07-30T08:25:36;2.72;;;2.53;;
45326;SDS011;31062;49.678;24.560;2022-07-30T08:28:22;4.75;;;2.92;;
45326;SDS011;31062;49.678;24.560;2022-07-30T08:31:22;5.82;;;2.58;;
45326;SDS011;31062;49.678;24.560;2022-07-30T08:34:08;4.38;;;2.10;;
45326;SDS011;31062;49.678;24.560;2022-07-30T08:36:59;2.87;;;2.47;;
45326;SDS011;31062;49.678;24.560;2022-07-30T08:39:45;3.20;;;2.60;;
45326;SDS011;31062;49.678;24.560;2022-07-30T08:42:33;2.70;;;2.38;;
45326;SDS011;31062;49.678;24.560;2022-07-30T08:45:19;2.67;;;2.47;;
45326;SDS011;31062;49.678;24.560;2022-07-30T08:48:49;6.97;;;2.67;;
45326;SDS011;31062;49.678;24.560;2022-07-30T08:51:39;2.53;;;2.33;;
45326;SDS011;31062;49.678;24.560;2022-07-30T08:54:51;3.75;;;2.50;;
45326;SDS011;31062;49.678;24.560;2022-07-30T08:57:37;2.75;;;2.25;;
45326;SDS011;31062;49.678;24.560;2022-07-30T09:00:28;4.13;;;2.60;;
45326;SDS011;31062;49.678;24.560;2022-07-30T09:03:15;3.75;;;2.45;;
45326;SDS011;31062;49.678;24.560;2022-07-30T09:06:02;5.95;;;2.50;;
45326;SDS011;31062;49.678;24.560;2022-07-30T09:08:49;4.00;;;2.78;;
45326;SDS011;31062;49.678;24.560;2022-07-30T09:11:35;3.47;;;2.67;;
45326;SDS011;31062;49.678;24.560;2022-07-30T09:14:22;2.95;;;2.75;;
45326;SDS011;31062;49.678;24.560;2022-07-30T09:17:16;3.10;;;2.80;;
45326;SDS011;31062;49.678;24.560;2022-07-30T09:20:03;3.00;;;2.75;;
45326;SDS011;31062;49.678;24.560;2022-07-30T09:22:56;14.70;;;3.20;;
45326;SDS011;31062;49.678;24.560;2022-07-30T09:26:06;8.00;;;3.10;;
45326;SDS011;31062;49.678;24.560;2022-07-30T09:29:18;5.82;;;2.78;;
45326;SDS011;31062;49.678;24.560;2022-07-30T09:32:48;6.85;;;2.92;;
45326;SDS011;31062;49.678;24.560;2022-07-30T09:35:52;3.05;;;2.78;;
45326;SDS011;31062;49.678;24.560;2022-07-30T09:38:59;4.63;;;3.23;;
45326;SDS011;31062;49.678;24.560;2022-07-30T09:42:15;4.93;;;3.83;;
45326;SDS011;31062;49.678;24.560;2022-07-30T09:45:13;4.00;;;3.60;;
45326;SDS011;31062;49.678;24.560;2022-07-30T09:48:02;4.70;;;4.00;;
45326;SDS011;31062;49.678;24.560;2022-07-30T09:51:06;3.70;;;3.40;;
45326;SDS011;31062;49.678;24.560;2022-07-30T09:54:00;6.32;;;3.72;;
45326;SDS011;31062;49.678;24.560;2022-07-30T09:57:03;8.30;;;3.60;;
45326;SDS011;31062;49.678;24.560;2022-07-30T10:00:18;5.28;;;3.28;;
45326;SDS011;31062;49.678;24.560;2022-07-30T10:03:26;5.10;;;3.22;;
45326;SDS011;31062;49.678;24.560;2022-07-30T10:07:04;3.80;;;3.50;;
45326;SDS011;31062;49.678;24.560;2022-07-30T10:10:11;4.25;;;3.00;;
45326;SDS011;31062;49.678;24.560;2022-07-30T10:13:03;3.47;;;3.15;;
45326;SDS011;31062;49.678;24.560;2022-07-30T10:15:51;6.07;;;3.75;;
45326;SDS011;31062;49.678;24.560;2022-07-30T10:18:39;3.83;;;3.53;;
45326;SDS011;31062;49.678;24.560;2022-07-30T10:21:48;3.58;;;3.25;;
45326;SDS011;31062;49.678;24.560;2022-07-30T10:25:10;3.90;;;3.05;;
45326;SDS011;31062;49.678;24.560;2022-07-30T10:28:30;3.75;;;3.30;;
45326;SDS011;31062;49.678;24.560;2022-07-30T10:31:24;4.40;;;3.92;;
45326;SDS011;31062;49.678;24.560;2022-07-30T10:34:31;4.03;;;3.17;;
45326;SDS011;31062;49.678;24.560;2022-07-30T10:37:19;3.28;;;3.05;;
45326;SDS011;31062;49.678;24.560;2022-07-30T10:43:50;4.40;;;3.10;;
45326;SDS011;31062;49.678;24.560;2022-07-30T10:50:04;3.78;;;3.08;;
45326;SDS011;31062;49.678;24.560;2022-07-30T10:52:55;6.27;;;3.60;;
45326;SDS011;31062;49.678;24.560;2022-07-30T10:55:44;4.25;;;3.67;;
45326;SDS011;31062;49.678;24.560;2022-07-30T10:58:30;6.00;;;3.38;;
45326;SDS011;31062;49.678;24.560;2022-07-30T11:04:37;2.90;;;2.70;;
45326;SDS011;31062;49.678;24.560;2022-07-30T11:07:28;3.33;;;3.00;;
45326;SDS011;31062;49.678;24.560;2022-07-30T11:19:21;3.47;;;3.17;;
45326;SDS011;31062;49.678;24.560;2022-07-30T11:22:29;3.40;;;2.90;;
45326;SDS011;31062;49.678;24.560;2022-07-30T11:28:34;4.05;;;3.58;;
45326;SDS011;31062;49.678;24.560;2022-07-30T11:31:25;3.35;;;2.95;;
45326;SDS011;31062;49.678;24.560;2022-07-30T11:34:31;3.50;;;3.20;;
45326;SDS011;31062;49.678;24.560;2022-07-30T11:37:17;5.95;;;3.30;;
45326;SDS011;31062;49.678;24.560;2022-07-30T11:40:16;6.00;;;3.85;;
45326;SDS011;31062;49.678;24.560;2022-07-30T11:46:20;4.93;;;3.50;;
45326;SDS011;31062;49.678;24.560;2022-07-30T11:49:13;7.10;;;4.10;;
45326;SDS011;31062;49.678;24.560;2022-07-30T11:52:00;3.78;;;3.47;;
45326;SDS011;31062;49.678;24.560;2022-07-30T11:54:53;3.92;;;3.42;;
45326;SDS011;31062;49.678;24.560;2022-07-30T11:57:40;4.10;;;3.25;;
45326;SDS011;31062;49.678;24.560;2022-07-30T12:00:34;4.80;;;4.00;;
45326;SDS011;31062;49.678;24.560;2022-07-30T12:03:21;3.83;;;3.35;;
45326;SDS011;31062;49.678;24.560;2022-07-30T12:06:14;4.20;;;3.80;;
45326;SDS011;31062;49.678;24.560;2022-07-30T12:09:06;4.18;;;3.35;;
45326;SDS011;31062;49.678;24.560;2022-07-30T12:11:55;3.78;;;3.40;;
45326;SDS011;31062;49.678;24.560;2022-07-30T12:14:42;8.25;;;3.53;;
45326;SDS011;31062;49.678;24.560;2022-07-30T12:17:43;5.18;;;3.72;;
45326;SDS011;31062;49.678;24.560;2022-07-30T12:20:30;4.57;;;3.38;;
45326;SDS011;31062;49.678;24.560;2022-07-30T12:23:16;5.28;;;3.25;;
45326;SDS011;31062;49.678;24.560;2022-07-30T12:26:06;3.83;;;3.20;;
45326;SDS011;31062;49.678;24.560;2022-07-30T12:28:53;3.95;;;3.08;;
45326;SDS011;31062;49.678;24.560;2022-07-30T12:31:43;4.43;;;3.28;;
45326;SDS011;31062;49.678;24.560;2022-07-30T12:34:30;3.63;;;3.33;;
45326;SDS011;31062;49.678;24.560;2022-07-30T12:37:18;3.55;;;3.25;;
45326;SDS011;31062;49.678;24.560;2022-07-30T12:40:09;3.13;;;2.78;;
45326;SDS011;31062;49.678;24.560;2022-07-30T12:42:59;7.32;;;3.15;;
45326;SDS011;31062;49.678;24.560;2022-07-30T12:45:45;3.83;;;3.05;;
45326;SDS011;31062;49.678;24.560;2022-07-30T12:48:47;6.20;;;3.08;;
45326;SDS011;31062;49.678;24.560;2022-07-30T12:51:52;6.35;;;3.30;;
45326;SDS011;31062;49.678;24.560;2022-07-30T12:54:44;3.20;;;3.00;;
45326;SDS011;31062;49.678;24.560;2022-07-30T12:57:54;5.00;;;3.28;;
45326;SDS011;31062;49.678;24.560;2022-07-30T13:00:52;4.40;;;3.38;;
45326;SDS011;31062;49.678;24.560;2022-07-30T13:03:40;5.30;;;3.60;;
45326;SDS011;31062;49.678;24.560;2022-07-30T13:06:26;3.55;;;2.90;;
45326;SDS011;31062;49.678;24.560;2022-07-30T13:09:18;3.95;;;3.50;;
45326;SDS011;31062;49.678;24.560;2022-07-30T13:12:05;5.43;;;3.80;;
45326;SDS011;31062;49.678;24.560;2022-07-30T13:14:51;8.25;;;3.85;;
45326;SDS011;31062;49.678;24.560;2022-07-30T13:17:37;4.32;;;3.67;;
45326;SDS011;31062;49.678;24.560;2022-07-30T13:20:23;4.10;;;3.60;;
45326;SDS011;31062;49.678;24.560;2022-07-30T13:23:09;5.43;;;3.53;;
45326;SDS011;31062;49.678;24.560;2022-07-30T13:25:55;8.35;;;3.50;;
45326;SDS011;31062;49.678;24.560;2022-07-30T13:28:42;9.30;;;3.28;;
45326;SDS011;31062;49.678;24.560;2022-07-30T13:31:31;8.52;;;4.00;;
45326;SDS011;31062;49.678;24.560;2022-07-30T13:34:28;9.05;;;5.93;;
45326;SDS011;31062;49.678;24.560;2022-07-30T13:37:14;5.63;;;4.50;;
45326;SDS011;31062;49.678;24.560;2022-07-30T13:40:00;7.60;;;3.22;;
45326;SDS011;31062;49.678;24.560;2022-07-30T13:42:46;5.90;;;3.55;;
45326;SDS011;31062;49.678;24.560;2022-07-30T13:45:34;6.80;;;3.35;;
45326;SDS011;31062;49.678;24.560;2022-07-30T13:48:20;5.85;;;3.20;;
45326;SDS011;31062;49.678;24.560;2022-07-30T13:51:07;6.65;;;3.88;;
45326;SDS011;31062;49.678;24.560;2022-07-30T13:53:53;3.08;;;2.88;;
45326;SDS011;31062;49.678;24.560;2022-07-30T13:56:39;3.45;;;3.15;;
45326;SDS011;31062;49.678;24.560;2022-07-30T13:59:26;6.10;;;3.45;;
45326;SDS011;31062;49.678;24.560;2022-07-30T14:02:13;3.90;;;3.60;;
45326;SDS011;31062;49.678;24.560;2022-07-30T14:04:59;6.22;;;3.80;;
45326;SDS011;31062;49.678;24.560;2022-07-30T14:07:53;5.28;;;3.83;;
45326;SDS011;31062;49.678;24.560;2022-07-30T14:10:39;6.88;;;4.13;;
45326;SDS011;31062;49.678;24.560;2022-07-30T14:13:25;5.75;;;4.40;;
45326;SDS011;31062;49.678;24.560;2022-07-30T14:16:11;5.97;;;4.30;;
45326;SDS011;31062;49.678;24.560;2022-07-30T14:19:18;6.10;;;3.85;;
45326;SDS011;31062;49.678;24.560;2022-07-30T14:22:09;5.30;;;3.70;;
45326;SDS011;31062;49.678;24.560;2022-07-30T14:24:56;5.28;;;3.50;;
45326;SDS011;31062;49.678;24.560;2022-07-30T14:27:42;3.92;;;3.60;;
45326;SDS011;31062;49.678;24.560;2022-07-30T14:30:32;4.95;;;4.30;;
45326;SDS011;31062;49.678;24.560;2022-07-30T14:33:18;7.25;;;3.92;;
45326;SDS011;31062;49.678;24.560;2022-07-30T14:36:04;5.07;;;3.90;;
45326;SDS011;31062;49.678;24.560;2022-07-30T14:38:51;11.50;;;4.78;;
45326;SDS011;31062;49.678;24.560;2022-07-30T14:41:41;5.17;;;3.97;;
45326;SDS011;31062;49.678;24.560;2022-07-30T14:44:27;6.65;;;4.20;;
45326;SDS011;31062;49.678;24.560;2022-07-30T14:47:13;6.45;;;3.42;;
45326;SDS011;31062;49.678;24.560;2022-07-30T14:49:59;7.20;;;3.78;;
45326;SDS011;31062;49.678;24.560;2022-07-30T14:52:45;4.80;;;3.33;;
45326;SDS011;31062;49.678;24.560;2022-07-30T14:55:33;6.72;;;3.65;;
45326;SDS011;31062;49.678;24.560;2022-07-30T14:58:19;7.45;;;3.50;;
45326;SDS011;31062;49.678;24.560;2022-07-30T15:01:05;4.55;;;3.15;;
45326;SDS011;31062;49.678;24.560;2022-07-30T15:04:00;4.80;;;3.28;;
45326;SDS011;31062;49.678;24.560;2022-07-30T15:06:46;9.38;;;3.67;;
45326;SDS011;31062;49.678;24.560;2022-07-30T15:09:32;7.57;;;3.20;;
45326;SDS011;31062;49.678;24.560;2022-07-30T15:12:18;11.30;;;4.18;;
45326;SDS011;31062;49.678;24.560;2022-07-30T15:15:10;8.57;;;4.50;;
45326;SDS011;31062;49.678;24.560;2022-07-30T15:17:59;14.38;;;5.30;;
45326;SDS011;31062;49.678;24.560;2022-07-30T15:20:45;6.30;;;3.63;;
45326;SDS011;31062;49.678;24.560;2022-07-30T15:23:31;3.50;;;3.20;;
45326;SDS011;31062;49.678;24.560;2022-07-30T15:26:17;4.57;;;3.15;;
45326;SDS011;31062;49.678;24.560;2022-07-30T15:29:03;5.15;;;3.40;;
45326;SDS011;31062;49.678;24.560;2022-07-30T15:31:50;3.58;;;3.28;;
45326;SDS011;31062;49.678;24.560;2022-07-30T15:34:39;3.97;;;3.58;;
45326;SDS011;31062;49.678;24.560;2022-07-30T15:37:25;5.03;;;3.75;;
45326;SDS011;31062;49.678;24.560;2022-07-30T15:40:11;7.30;;;3.50;;
45326;SDS011;31062;49.678;24.560;2022-07-30T15:42:57;3.67;;;3.33;;
45326;SDS011;31062;49.678;24.560;2022-07-30T15:45:43;7.03;;;3.90;;
45326;SDS011;31062;49.678;24.560;2022-07-30T15:48:40;5.40;;;4.13;;
45326;SDS011;31062;49.678;24.560;2022-07-30T15:51:26;5.90;;;3.78;;
45326;SDS011;31062;49.678;24.560;2022-07-30T15:54:13;6.13;;;3.63;;
45326;SDS011;31062;49.678;24.560;2022-07-30T15:57:06;6.15;;;3.63;;
45326;SDS011;31062;49.678;24.560;2022-07-30T15:59:52;7.78;;;3.70;;
45326;SDS011;31062;49.678;24.560;2022-07-30T16:02:38;8.77;;;3.80;;
45326;SDS011;31062;49.678;24.560;2022-07-30T16:05:25;5.22;;;3.78;;
45326;SDS011;31062;49.678;24.560;2022-07-30T16:08:31;7.05;;;4.90;;
45326;SDS011;31062;49.678;24.560;2022-07-30T16:11:18;11.32;;;6.07;;
45326;SDS011;31062;49.678;24.560;2022-07-30T16:14:05;5.63;;;5.00;;
45326;SDS011;31062;49.678;24.560;2022-07-30T16:16:51;11.55;;;5.50;;
45326;SDS011;31062;49.678;24.560;2022-07-30T16:19:37;7.07;;;4.90;;
45326;SDS011;31062;49.678;24.560;2022-07-30T16:22:23;6.32;;;5.35;;
45326;SDS011;31062;49.678;24.560;2022-07-30T16:25:09;11.30;;;4.90;;
45326;SDS011;31062;49.678;24.560;2022-07-30T16:27:55;10.38;;;4.75;;
45326;SDS011;31062;49.678;24.560;2022-07-30T16:30:42;5.53;;;4.57;;
45326;SDS011;31062;49.678;24.560;2022-07-30T16:33:36;9.35;;;4.68;;
45326;SDS011;31062;49.678;24.560;2022-07-30T16:36:22;11.38;;;4.38;;
45326;SDS011;31062;49.678;24.560;2022-07-30T16:39:11;8.45;;;4.65;;
45326;SDS011;31062;49.678;24.560;2022-07-30T16:41:57;4.78;;;4.38;;
45326;SDS011;31062;49.678;24.560;2022-07-30T16:44:46;10.60;;;5.35;;
45326;SDS011;31062;49.678;24.560;2022-07-30T16:47:32;8.38;;;6.72;;
45326;SDS011;31062;49.678;24.560;2022-07-30T16:50:19;5.80;;;5.07;;
45326;SDS011;31062;49.678;24.560;2022-07-30T16:53:07;8.95;;;4.93;;
45326;SDS011;31062;49.678;24.560;2022-07-30T16:55:58;6.65;;;4.20;;
45326;SDS011;31062;49.678;24.560;2022-07-30T16:58:44;6.07;;;4.35;;
45326;SDS011;31062;49.678;24.560;2022-07-30T17:01:31;10.43;;;4.32;;
45326;SDS011;31062;49.678;24.560;2022-07-30T17:04:17;7.28;;;5.55;;
45326;SDS011;31062;49.678;24.560;2022-07-30T17:07:04;11.93;;;5.32;;
45326;SDS011;31062;49.678;24.560;2022-07-30T17:09:50;8.93;;;6.03;;
45326;SDS011;31062;49.678;24.560;2022-07-30T17:12:38;7.85;;;6.20;;
45326;SDS011;31062;49.678;24.560;2022-07-30T17:15:24;7.75;;;5.90;;
45326;SDS011;31062;49.678;24.560;2022-07-30T17:18:17;11.50;;;6.20;;
45326;SDS011;31062;49.678;24.560;2022-07-30T17:21:05;10.55;;;7.03;;
45326;SDS011;31062;49.678;24.560;2022-07-30T17:23:53;8.60;;;6.53;;